createdAt,value
2022-09-06T00:00:18.761Z,77.30
2022-09-06T00:03:08.125Z,77.20
2022-09-06T00:05:33.162Z,77.40
2022-09-06T00:08:17.817Z,78.10
2022-09-06T00:10:44.556Z,76.90
2022-09-06T00:13:26.719Z,77.30
2022-09-06T00:15:53.590Z,76.50
2022-09-06T00:21:01.101Z,75.70
2022-09-06T00:23:46.377Z,74.80
2022-09-06T00:26:13.735Z,74.50
2022-09-06T00:29:05.988Z,72.50
2022-09-06T00:31:48.006Z,73.90
2022-09-06T00:34:14.756Z,74.70
2022-09-06T00:36:44.596Z,76.00
2022-09-06T00:39:13.530Z,76.90
2022-09-06T00:41:57.030Z,77.30
2022-09-06T00:44:23.728Z,78.00
2022-09-06T00:47:00.928Z,79.00
2022-09-06T00:49:40.015Z,78.90
2022-09-06T00:52:12.624Z,79.20
2022-09-06T00:54:40.366Z,80.00
2022-09-06T00:57:18.153Z,80.60
2022-09-06T00:59:48.745Z,81.30
2022-09-06T01:02:31.190Z,81.30
2022-09-06T01:04:58.355Z,81.30
2022-09-06T01:07:56.038Z,81.70
2022-09-06T01:10:34.963Z,82.20
2022-09-06T01:13:28.709Z,82.10
2022-09-06T01:16:11.634Z,83.10
2022-09-06T01:18:59.884Z,83.80
2022-09-06T01:22:01.940Z,83.60
2022-09-06T01:25:10.197Z,83.90
2022-09-06T01:27:48.968Z,83.80
2022-09-06T01:30:18.904Z,83.90
2022-09-06T01:33:03.768Z,83.60
2022-09-06T01:35:47.954Z,83.10
2022-09-06T01:38:15.422Z,83.20
2022-09-06T01:40:42.223Z,83.70
2022-09-06T01:43:33.127Z,84.70
2022-09-06T01:46:24.851Z,84.20
2022-09-06T01:49:09.445Z,84.20
2022-09-06T01:52:08.183Z,84.50
2022-09-06T01:54:43.731Z,84.80
2022-09-06T01:57:29.000Z,85.20
2022-09-06T02:03:27.751Z,82.70
2022-09-06T02:05:59.320Z,81.80
2022-09-06T02:11:15.440Z,80.90
2022-09-06T02:13:47.574Z,80.20
2022-09-06T02:16:20.588Z,79.30
2022-09-06T02:19:10.547Z,78.90
2022-09-06T02:21:41.430Z,79.20
2022-09-06T02:24:11.690Z,79.50
2022-09-06T02:29:27.529Z,79.70
2022-09-06T02:32:13.181Z,80.10
2022-09-06T02:34:40.924Z,80.20
2022-09-06T02:37:15.513Z,80.40
2022-09-06T02:39:50.719Z,80.20
2022-09-06T02:42:17.886Z,80.30
2022-09-06T02:44:44.650Z,80.40
2022-09-06T02:47:25.676Z,80.90
2022-09-06T02:50:04.690Z,80.90
2022-09-06T02:52:31.357Z,80.90
2022-09-06T02:57:38.768Z,81.40
2022-09-06T03:00:05.877Z,82.00
2022-09-06T03:02:38.994Z,82.50
2022-09-06T03:05:05.944Z,82.90
2022-09-06T03:07:32.652Z,83.70
2022-09-06T03:09:59.350Z,84.50
2022-09-06T03:12:32.026Z,84.40
2022-09-06T03:14:58.734Z,84.70
2022-09-06T03:17:25.548Z,85.40
2022-09-06T03:19:52.255Z,85.50
2022-09-06T03:22:19.104Z,86.10
2022-09-06T03:24:45.804Z,86.40
2022-09-06T03:27:12.436Z,86.70
2022-09-06T03:29:48.168Z,86.70
2022-09-06T03:32:37.427Z,86.70
2022-09-06T03:35:25.240Z,86.70
2022-09-06T03:37:50.327Z,86.90
2022-09-06T03:40:28.999Z,86.50
2022-09-06T03:42:55.654Z,86.60
2022-09-06T03:45:22.380Z,86.60
2022-09-06T03:47:54.142Z,86.60
2022-09-06T03:50:20.800Z,86.60
2022-09-06T03:52:55.028Z,86.60
2022-09-06T03:55:21.801Z,86.70
2022-09-06T03:57:48.487Z,87.00
2022-09-06T04:00:24.325Z,87.10
2022-09-06T04:02:51.098Z,87.30
2022-09-06T04:05:18.141Z,87.60
2022-09-06T04:07:47.341Z,87.80
2022-09-06T04:10:14.081Z,87.90
2022-09-06T04:12:40.999Z,88.20
2022-09-06T04:15:08.113Z,88.40
2022-09-06T04:17:34.785Z,88.70
2022-09-06T04:20:01.580Z,89.00
2022-09-06T04:22:28.221Z,89.10
2022-09-06T04:24:54.845Z,89.50
2022-09-06T04:27:22.026Z,89.50
2022-09-06T04:29:48.673Z,89.60
2022-09-06T04:32:15.339Z,89.70
2022-09-06T04:34:45.148Z,89.70
2022-09-06T04:37:12.039Z,89.90
2022-09-06T04:42:19.198Z,90.00
2022-09-06T04:44:45.881Z,90.00
2022-09-06T04:47:15.015Z,89.90
2022-09-06T04:49:44.367Z,89.80
2022-09-06T04:52:12.043Z,89.80
2022-09-06T04:54:38.872Z,90.10
2022-09-06T04:57:05.802Z,90.30
2022-09-06T04:59:40.708Z,90.60
2022-09-06T05:02:08.761Z,90.50
2022-09-06T05:07:16.054Z,90.70
2022-09-06T05:09:42.744Z,90.70
2022-09-06T05:12:19.529Z,90.60
2022-09-06T05:14:46.248Z,90.70
2022-09-06T05:17:21.630Z,90.70
2022-09-06T05:19:51.138Z,90.70
2022-09-06T05:25:02.565Z,90.80
2022-09-06T05:27:29.284Z,91.20
2022-09-06T05:29:56.076Z,91.30
2022-09-06T05:35:12.104Z,91.20
2022-09-06T05:37:38.873Z,90.90
2022-09-06T05:40:06.131Z,90.90
2022-09-06T05:42:32.904Z,91.20
2022-09-06T05:44:59.531Z,91.20
2022-09-06T05:47:26.444Z,91.10
2022-09-06T05:49:54.137Z,91.10
2022-09-06T05:52:20.804Z,91.00
2022-09-06T05:54:47.579Z,90.80
2022-09-06T05:57:14.353Z,90.50
2022-09-06T05:59:41.070Z,90.20
2022-09-06T06:02:07.871Z,90.00
2022-09-06T06:04:46.952Z,89.60
2022-09-06T06:07:22.136Z,89.00
2022-09-06T06:09:48.793Z,89.50
2022-09-06T06:12:15.620Z,89.50
2022-09-06T06:14:42.273Z,89.60
2022-09-06T06:17:12.209Z,89.60
2022-09-06T06:19:38.948Z,89.40
2022-09-06T06:22:05.665Z,89.30
2022-09-06T06:24:32.306Z,88.80
2022-09-06T06:27:04.785Z,88.30
2022-09-06T06:29:31.733Z,87.60
2022-09-06T06:31:58.512Z,87.10
2022-09-06T06:34:25.260Z,86.70
2022-09-06T06:36:51.901Z,86.50
2022-09-06T06:39:25.989Z,85.30
2022-09-06T06:41:53.245Z,84.80
2022-09-06T06:44:19.878Z,84.00
2022-09-06T06:49:27.040Z,82.80
2022-09-06T06:51:53.665Z,82.30
2022-09-06T06:54:20.292Z,81.80
2022-09-06T06:56:46.954Z,81.30
2022-09-06T06:59:14.401Z,80.20
2022-09-06T07:01:41.263Z,79.60
2022-09-06T07:04:07.958Z,79.70
2022-09-06T07:12:26.501Z,77.90
2022-09-06T07:14:53.133Z,76.60
2022-09-06T07:17:19.780Z,77.10
2022-09-06T07:22:33.049Z,76.30
2022-09-06T07:25:03.599Z,75.70
2022-09-06T07:30:12.797Z,75.70
2022-09-06T07:32:39.437Z,75.60
2022-09-06T07:35:06.644Z,74.70
2022-09-06T07:37:33.279Z,74.30
2022-09-06T07:39:59.922Z,74.40
2022-09-06T07:42:26.586Z,74.80
2022-09-06T07:44:53.218Z,73.50
2022-09-06T07:56:42.864Z,70.40
2022-09-06T08:02:00.342Z,68.70
2022-09-06T08:04:27.031Z,70.20
2022-09-06T08:09:40.440Z,71.50
2022-09-06T08:12:07.689Z,71.60
2022-09-06T08:14:34.638Z,71.80
2022-09-06T08:17:01.934Z,72.10
2022-09-06T08:19:37.484Z,72.40
2022-09-06T08:22:04.249Z,72.60
2022-09-06T08:24:30.870Z,71.80
2022-09-06T08:26:57.571Z,72.10
2022-09-06T08:29:24.235Z,71.50
2022-09-06T08:31:50.933Z,71.20
2022-09-06T08:34:17.631Z,70.70
2022-09-06T08:36:44.496Z,71.30
2022-09-06T08:39:12.021Z,70.50
2022-09-06T08:42:00.401Z,69.90
2022-09-06T08:44:57.458Z,69.30
2022-09-06T08:47:25.007Z,69.50
2022-09-06T08:49:56.722Z,68.40
2022-09-06T08:56:03.187Z,69.20
2022-09-06T08:58:54.167Z,68.10
2022-09-06T09:01:27.432Z,68.10
2022-09-06T09:03:57.379Z,67.40
2022-09-06T09:06:27.038Z,67.60
2022-09-06T09:09:14.879Z,66.40
2022-09-06T09:11:50.831Z,66.70
2022-09-06T09:14:29.193Z,66.10
2022-09-06T09:17:03.471Z,66.40
2022-09-06T09:19:30.166Z,66.20
2022-09-06T09:21:56.845Z,64.50
2022-09-06T09:24:23.470Z,64.60
2022-09-06T09:27:06.817Z,64.00
2022-09-06T09:32:45.310Z,62.60
2022-09-06T09:35:35.381Z,61.70
2022-09-06T09:38:12.080Z,61.00
2022-09-06T09:40:48.792Z,59.30
2022-09-06T09:43:23.134Z,59.00
2022-09-06T09:46:23.212Z,58.40
2022-09-06T09:49:10.769Z,57.30
2022-09-06T09:51:46.600Z,56.70
2022-09-06T09:54:31.450Z,56.60
2022-09-06T09:56:58.783Z,57.20
2022-09-06T09:59:53.603Z,57.60
2022-09-06T10:02:36.473Z,57.40
2022-09-06T10:05:27.291Z,58.20
2022-09-06T10:07:59.672Z,57.90
2022-09-06T10:10:28.224Z,56.70
2022-09-06T10:13:18.173Z,56.80
2022-09-06T10:15:45.054Z,56.20
2022-09-06T10:18:18.663Z,57.30
2022-09-06T10:21:15.838Z,57.90
2022-09-06T10:26:55.713Z,57.90
2022-09-06T10:29:45.397Z,58.70
2022-09-06T10:32:49.826Z,59.60
2022-09-06T10:35:23.522Z,58.00
2022-09-06T10:38:28.368Z,58.60
2022-09-06T10:50:17.552Z,57.80
2022-09-06T10:52:48.104Z,56.60
2022-09-06T10:55:17.540Z,56.00
2022-09-06T11:00:42.746Z,56.30
2022-09-06T11:06:24.342Z,55.70
2022-09-06T11:09:29.555Z,55.30
2022-09-06T11:12:08.424Z,56.50
2022-09-06T11:14:36.627Z,56.60
2022-09-06T11:17:11.840Z,56.80
2022-09-06T11:20:19.585Z,56.70
2022-09-06T11:22:58.700Z,57.30
2022-09-06T11:25:46.265Z,56.90
2022-09-06T11:28:18.129Z,57.70
2022-09-06T11:30:47.995Z,57.50
2022-09-06T11:33:26.611Z,57.80
2022-09-06T11:36:13.668Z,57.10
2022-09-06T11:38:54.527Z,57.50
2022-09-06T11:41:32.174Z,57.20
2022-09-06T11:43:59.985Z,57.70
2022-09-06T11:46:35.745Z,58.10
2022-09-06T11:49:07.732Z,57.60
2022-09-06T11:51:53.426Z,58.20
2022-09-06T11:54:26.152Z,59.00
2022-09-06T11:57:01.215Z,59.70
2022-09-06T11:59:38.374Z,60.30
2022-09-06T12:02:41.203Z,60.70
2022-09-06T12:05:12.613Z,60.90
2022-09-06T12:08:13.353Z,61.00
2022-09-06T12:10:40.296Z,60.60
2022-09-06T12:13:44.611Z,59.20
2022-09-06T12:16:12.274Z,59.40
2022-09-06T12:19:03.781Z,58.30
2022-09-06T12:21:36.928Z,59.00
2022-09-06T12:24:07.717Z,59.00
2022-09-06T12:26:55.945Z,58.90
2022-09-06T12:32:12.299Z,59.20
2022-09-06T12:34:39.110Z,59.40
2022-09-06T12:37:07.805Z,58.60
2022-09-06T12:39:35.455Z,57.20
2022-09-06T12:42:05.307Z,56.30
2022-09-06T12:51:13.462Z,56.10
2022-09-06T12:53:47.661Z,54.40
2022-09-06T12:56:20.848Z,54.40
2022-09-06T12:58:47.684Z,54.80
2022-09-06T13:01:27.384Z,54.20
2022-09-06T13:04:00.011Z,54.00
2022-09-06T13:06:27.959Z,55.10
2022-09-06T13:08:57.338Z,55.10
2022-09-06T13:11:36.984Z,54.30
2022-09-06T13:14:14.241Z,52.20
2022-09-06T13:16:48.245Z,53.10
2022-09-06T13:19:30.004Z,53.10
2022-09-06T13:21:57.241Z,53.40
2022-09-06T13:24:37.796Z,53.40
2022-09-06T13:27:22.986Z,52.70
2022-09-06T13:30:01.658Z,52.60
2022-09-06T13:32:28.803Z,53.00
2022-09-06T13:34:57.350Z,52.40
2022-09-06T13:37:26.133Z,51.90
2022-09-06T13:39:52.860Z,52.80
2022-09-06T13:42:46.386Z,51.70
2022-09-06T13:45:26.924Z,50.00
2022-09-06T13:48:03.528Z,50.50
2022-09-06T13:50:44.540Z,50.50
2022-09-06T13:53:11.299Z,50.60
2022-09-06T13:55:38.507Z,50.20
2022-09-06T13:58:05.233Z,50.10
2022-09-06T14:00:31.963Z,50.90
2022-09-06T14:02:58.950Z,51.30
2022-09-06T14:05:25.908Z,51.10
2022-09-06T14:07:52.606Z,51.50
2022-09-06T14:10:19.369Z,50.70
2022-09-06T14:12:46.162Z,50.80
2022-09-06T14:15:18.520Z,51.60
2022-09-06T14:17:47.523Z,51.20
2022-09-06T14:20:14.461Z,51.20
2022-09-06T14:22:41.157Z,50.30
2022-09-06T14:25:09.617Z,49.70
2022-09-06T14:27:36.588Z,50.50
2022-09-06T14:30:03.574Z,50.10
2022-09-06T14:32:30.534Z,50.30
2022-09-06T14:34:57.682Z,51.00
2022-09-06T14:37:24.405Z,51.20
2022-09-06T14:39:51.282Z,51.40
2022-09-06T14:42:18.192Z,50.90
2022-09-06T14:44:45.047Z,50.90
2022-09-06T14:47:12.285Z,51.40
2022-09-06T14:49:42.533Z,50.20
2022-09-06T14:52:09.559Z,49.60
2022-09-06T14:54:36.297Z,48.90
2022-09-06T14:57:03.245Z,49.10
2022-09-06T14:59:30.107Z,49.40
2022-09-06T15:01:59.328Z,48.80
2022-09-06T15:04:26.350Z,49.20
2022-09-06T15:06:53.074Z,48.80
2022-09-06T15:09:19.763Z,49.30
2022-09-06T15:11:51.777Z,49.70
2022-09-06T15:14:21.281Z,49.20
2022-09-06T15:19:30.464Z,50.00
2022-09-06T15:21:57.928Z,50.90
2022-09-06T15:24:25.261Z,51.10
2022-09-06T15:26:52.002Z,51.60
2022-09-06T15:29:18.742Z,52.00
2022-09-06T15:31:46.077Z,52.10
2022-09-06T15:34:24.073Z,51.30
2022-09-06T15:37:26.173Z,51.30
2022-09-06T15:39:52.930Z,50.80
2022-09-06T15:42:19.797Z,49.70
2022-09-06T15:44:47.473Z,49.30
2022-09-06T15:47:14.160Z,49.40
2022-09-06T15:49:40.907Z,49.60
2022-09-06T15:52:07.868Z,49.90
2022-09-06T15:54:34.698Z,50.60
2022-09-06T15:57:01.476Z,50.90
2022-09-06T15:59:28.402Z,51.90
2022-09-06T16:01:55.247Z,51.20
2022-09-06T16:04:22.070Z,51.40
2022-09-06T16:06:48.915Z,51.50
2022-09-06T16:09:15.965Z,52.10
2022-09-06T16:11:53.300Z,53.10
2022-09-06T16:14:20.302Z,54.20
2022-09-06T16:16:47.298Z,53.60
2022-09-06T16:19:14.624Z,53.30
2022-09-06T16:21:48.984Z,54.00
2022-09-06T16:24:18.117Z,53.80
2022-09-06T16:26:46.140Z,54.00
2022-09-06T16:29:20.202Z,54.20
2022-09-06T16:31:47.542Z,54.60
2022-09-06T16:34:15.325Z,53.20
2022-09-06T16:36:42.226Z,54.10
2022-09-06T16:39:09.348Z,54.50
2022-09-06T16:41:47.963Z,54.40
2022-09-06T16:44:18.585Z,54.00
2022-09-06T16:46:46.968Z,54.00
2022-09-06T16:49:15.431Z,54.10
2022-09-06T16:51:42.680Z,53.40
2022-09-06T16:54:09.945Z,54.40
2022-09-06T16:56:36.726Z,54.70
2022-09-06T16:59:06.523Z,54.70
2022-09-06T17:01:35.350Z,54.70
2022-09-06T17:04:02.554Z,54.70
2022-09-06T17:09:18.228Z,55.20
2022-09-06T17:14:26.830Z,55.70
2022-09-06T17:16:53.502Z,56.00
2022-09-06T17:19:38.950Z,56.10
2022-09-06T17:22:05.882Z,56.20
2022-09-06T17:24:32.833Z,56.10
2022-09-06T17:26:59.640Z,56.00
2022-09-06T17:29:27.354Z,56.00
2022-09-06T17:32:02.989Z,55.60
2022-09-06T17:34:40.145Z,55.00
2022-09-06T17:37:07.377Z,54.60
2022-09-06T17:39:34.378Z,54.70
2022-09-06T17:42:10.599Z,55.40
2022-09-06T17:44:38.313Z,55.80
2022-09-06T17:47:13.711Z,56.30
2022-09-06T17:49:54.763Z,55.70
2022-09-06T17:52:39.134Z,55.80
2022-09-06T17:55:06.176Z,56.00
2022-09-06T17:57:50.271Z,56.10
2022-09-06T18:00:17.151Z,56.90
2022-09-06T18:02:46.803Z,57.20
2022-09-06T18:05:13.839Z,57.50
2022-09-06T18:07:45.741Z,58.30
2022-09-06T18:10:12.501Z,58.50
2022-09-06T18:12:52.788Z,58.60
2022-09-06T18:15:20.139Z,58.60
2022-09-06T18:17:46.880Z,58.50
2022-09-06T18:20:14.348Z,58.60
2022-09-06T18:22:41.072Z,58.50
2022-09-06T18:25:10.790Z,58.90
2022-09-06T18:27:43.720Z,59.10
2022-09-06T18:30:14.991Z,59.40
2022-09-06T18:32:42.010Z,59.40
2022-09-06T18:46:36.498Z,59.60
2022-09-06T18:49:33.537Z,60.00
2022-09-06T18:52:13.055Z,60.70
2022-09-06T18:54:59.951Z,61.30
2022-09-06T18:57:26.635Z,62.20
2022-09-06T19:07:58.766Z,65.40
2022-09-06T19:10:45.664Z,66.30
2022-09-06T19:13:25.931Z,67.40
2022-09-06T19:19:13.964Z,68.50
2022-09-06T19:43:34.604Z,67.40
2022-09-06T19:51:21.337Z,65.80
2022-09-06T19:53:50.116Z,64.90
2022-09-06T19:56:24.486Z,64.40
2022-09-06T19:59:05.649Z,64.60
2022-09-06T20:01:39.130Z,65.00
2022-09-06T20:06:49.829Z,65.70
2022-09-06T20:09:21.396Z,66.10
2022-09-06T20:14:25.175Z,66.60
2022-09-06T20:16:52.200Z,66.70
2022-09-06T20:22:00.352Z,67.00
2022-09-06T20:24:27.204Z,66.90
2022-09-06T20:26:54.354Z,67.50
2022-09-06T20:29:21.247Z,67.90
2022-09-06T20:31:55.314Z,68.30
2022-09-06T20:34:24.394Z,68.50
2022-09-06T20:36:51.005Z,68.70
2022-09-06T20:39:17.574Z,69.00
2022-09-06T20:41:45.246Z,69.20
2022-09-06T20:44:12.178Z,69.60
2022-09-06T20:46:38.873Z,69.70
2022-09-06T20:49:06.044Z,69.70
2022-09-06T20:51:34.676Z,69.70
2022-09-06T20:54:03.310Z,71.20
2022-09-06T20:56:32.343Z,71.90
2022-09-06T20:59:01.170Z,72.60
2022-09-06T21:01:30.678Z,72.90
2022-09-06T21:03:59.713Z,73.40
2022-09-06T21:06:29.397Z,73.60
2022-09-06T21:08:57.434Z,74.30
2022-09-06T21:11:24.425Z,74.90
2022-09-06T21:13:53.705Z,75.20
2022-09-06T21:16:24.663Z,75.80
2022-09-06T21:18:57.082Z,76.10
2022-09-06T21:21:24.159Z,76.60
2022-09-06T21:23:51.117Z,77.30
2022-09-06T21:26:18.206Z,77.40
2022-09-06T21:28:51.185Z,78.10
2022-09-06T21:31:23.875Z,78.00
2022-09-06T21:33:53.458Z,77.70
2022-09-06T21:36:23.064Z,77.80
2022-09-06T21:38:54.001Z,77.60
2022-09-06T21:41:21.006Z,77.30
2022-09-06T21:43:55.372Z,78.20
2022-09-06T21:46:24.015Z,78.80
2022-09-06T21:48:54.648Z,79.10
2022-09-06T21:51:23.721Z,79.80
2022-09-06T21:53:51.895Z,81.70
2022-09-06T21:56:19.225Z,82.80
2022-09-06T21:58:57.779Z,83.90
2022-09-06T22:01:29.878Z,84.90
2022-09-06T22:03:56.508Z,85.70
2022-09-06T22:06:31.924Z,86.60
2022-09-06T22:09:00.676Z,88.40
2022-09-06T22:11:29.728Z,88.80
2022-09-06T22:14:02.778Z,89.60
2022-09-06T22:16:47.073Z,89.10
2022-09-06T22:19:13.741Z,89.60
2022-09-06T22:21:40.417Z,88.20
2022-09-06T22:24:09.700Z,87.80
2022-09-06T22:26:38.574Z,87.60
2022-09-06T22:29:07.533Z,89.40
2022-09-06T22:31:36.015Z,89.80
2022-09-06T22:34:06.135Z,89.80
2022-09-06T22:36:33.059Z,90.60
2022-09-06T22:38:59.769Z,91.10
2022-09-06T22:41:39.997Z,92.20
2022-09-06T22:44:07.048Z,92.40
2022-09-06T22:46:34.237Z,93.20
2022-09-06T22:49:03.724Z,93.50
2022-09-06T22:51:30.320Z,93.40
2022-09-06T22:53:57.140Z,93.20
2022-09-06T22:56:37.785Z,93.20
2022-09-06T22:59:04.945Z,92.40
2022-09-06T23:01:32.139Z,92.70
2022-09-06T23:04:20.406Z,92.90
2022-09-06T23:12:11.475Z,96.70
2022-09-06T23:14:39.880Z,97.10
2022-09-06T23:17:06.591Z,96.60
2022-09-06T23:19:48.005Z,96.80
2022-09-06T23:22:14.783Z,96.90
2022-09-06T23:24:43.949Z,97.20
2022-09-06T23:27:10.577Z,97.10
2022-09-06T23:29:46.672Z,97.60
2022-09-06T23:32:15.748Z,97.80
2022-09-06T23:34:42.476Z,98.10
2022-09-06T23:37:15.035Z,98.20
2022-09-06T23:39:53.295Z,98.40
2022-09-06T23:42:20.196Z,98.50
2022-09-06T23:44:49.655Z,98.40
2022-09-06T23:47:16.434Z,98.40
2022-09-06T23:49:43.067Z,98.40
2022-09-06T23:52:09.753Z,99.00
2022-09-06T23:54:38.996Z,99.30
2022-09-06T23:57:05.654Z,99.60
2022-09-06T23:59:41.305Z,99.70
